sensor_id;sensor_type;location;lat;lon;timestamp;temperature;humidity
1005;DHT22;491;53.480;10.174;2022-12-18T00:01:19;-5.50;99.90
1005;DHT22;491;53.480;10.174;2022-12-18T00:03:45;-5.40;99.90
1005;DHT22;491;53.480;10.174;2022-12-18T00:06:11;-5.70;99.90
1005;DHT22;491;53.480;10.174;2022-12-18T00:08:37;-5.60;99.90
1005;DHT22;491;53.480;10.174;2022-12-18T00:11:08;-5.40;99.90
1005;DHT22;491;53.480;10.174;2022-12-18T00:13:34;-5.30;99.90
1005;DHT22;491;53.480;10.174;2022-12-18T00:16:05;-5.40;99.90
1005;DHT22;491;53.480;10.174;2022-12-18T00:18:32;-5.40;99.90
1005;DHT22;491;53.480;10.174;2022-12-18T00:21:05;-5.40;99.90
1005;DHT22;491;53.480;10.174;2022-12-18T00:23:32;-5.40;99.90
1005;DHT22;491;53.480;10.174;2022-12-18T00:26:02;-5.50;99.90
1005;DHT22;491;53.480;10.174;2022-12-18T00:28:31;-5.40;99.90
1005;DHT22;491;53.480;10.174;2022-12-18T00:31:04;-5.30;99.90
1005;DHT22;491;53.480;10.174;2022-12-18T00:33:30;-5.40;99.90
1005;DHT22;491;53.480;10.174;2022-12-18T00:36:04;-5.50;99.90
1005;DHT22;491;53.480;10.174;2022-12-18T00:38:30;-5.70;99.90
1005;DHT22;491;53.480;10.174;2022-12-18T00:40:56;-5.60;99.90
1005;DHT22;491;53.480;10.174;2022-12-18T00:43:21;-5.60;99.90
1005;DHT22;491;53.480;10.174;2022-12-18T00:45:47;-5.90;99.90
1005;DHT22;491;53.480;10.174;2022-12-18T00:48:12;-5.90;99.90
1005;DHT22;491;53.480;10.174;2022-12-18T00:50:38;-5.80;99.90
1005;DHT22;491;53.480;10.174;2022-12-18T00:53:03;-5.80;99.90
1005;DHT22;491;53.480;10.174;2022-12-18T00:55:29;-5.80;99.90
1005;DHT22;491;53.480;10.174;2022-12-18T00:57:54;-5.70;99.90
1005;DHT22;491;53.480;10.174;2022-12-18T01:00:20;-5.90;99.90
1005;DHT22;491;53.480;10.174;2022-12-18T01:02:46;-5.70;99.90
1005;DHT22;491;53.480;10.174;2022-12-18T01:05:12;-5.60;99.90
1005;DHT22;491;53.480;10.174;2022-12-18T01:07:38;-5.70;99.90
1005;DHT22;491;53.480;10.174;2022-12-18T01:10:05;-5.90;99.90
1005;DHT22;491;53.480;10.174;2022-12-18T01:12:31;-5.80;99.90
1005;DHT22;491;53.480;10.174;2022-12-18T01:14:57;-5.90;99.90
1005;DHT22;491;53.480;10.174;2022-12-18T01:17:22;-6.00;99.90
1005;DHT22;491;53.480;10.174;2022-12-18T01:19:48;-6.00;99.90
1005;DHT22;491;53.480;10.174;2022-12-18T01:22:14;-6.00;99.90
1005;DHT22;491;53.480;10.174;2022-12-18T01:24:39;-5.90;99.90
1005;DHT22;491;53.480;10.174;2022-12-18T01:27:05;-5.90;99.90
1005;DHT22;491;53.480;10.174;2022-12-18T01:29:30;-6.00;99.90
1005;DHT22;491;53.480;10.174;2022-12-18T01:31:56;-6.00;99.90
1005;DHT22;491;53.480;10.174;2022-12-18T01:34:23;-5.70;99.90
1005;DHT22;491;53.480;10.174;2022-12-18T01:36:48;-6.00;99.90
1005;DHT22;491;53.480;10.174;2022-12-18T01:39:14;-6.00;99.90
1005;DHT22;491;53.480;10.174;2022-12-18T01:41:41;-6.00;99.90
1005;DHT22;491;53.480;10.174;2022-12-18T01:47:20;-6.00;99.90
1005;DHT22;491;53.480;10.174;2022-12-18T01:49:49;-6.00;99.90
1005;DHT22;491;53.480;10.174;2022-12-18T01:52:15;-6.10;99.90
1005;DHT22;491;53.480;10.174;2022-12-18T01:54:43;-6.00;99.90
1005;DHT22;491;53.480;10.174;2022-12-18T01:57:09;-6.00;99.90
1005;DHT22;491;53.480;10.174;2022-12-18T01:59:35;-6.10;99.90
1005;DHT22;491;53.480;10.174;2022-12-18T02:02:01;-6.10;99.90
1005;DHT22;491;53.480;10.174;2022-12-18T02:04:28;-6.20;99.90
1005;DHT22;491;53.480;10.174;2022-12-18T02:10:06;-6.10;99.90
1005;DHT22;491;53.480;10.174;2022-12-18T02:13:02;-6.30;99.90
1005;DHT22;491;53.480;10.174;2022-12-18T02:15:58;-6.30;99.90
1005;DHT22;491;53.480;10.174;2022-12-18T02:18:41;-6.20;99.90
1005;DHT22;491;53.480;10.174;2022-12-18T02:21:34;-6.30;99.90
1005;DHT22;491;53.480;10.174;2022-12-18T02:24:29;-6.20;99.90
1005;DHT22;491;53.480;10.174;2022-12-18T02:27:00;-6.60;99.90
1005;DHT22;491;53.480;10.174;2022-12-18T02:29:36;-6.50;99.90
1005;DHT22;491;53.480;10.174;2022-12-18T02:32:08;-6.60;99.90
1005;DHT22;491;53.480;10.174;2022-12-18T02:34:37;-6.60;99.90
1005;DHT22;491;53.480;10.174;2022-12-18T02:37:05;-6.70;99.90
1005;DHT22;491;53.480;10.174;2022-12-18T02:39:34;-6.80;99.90
1005;DHT22;491;53.480;10.174;2022-12-18T02:42:01;-6.60;99.90
1005;DHT22;491;53.480;10.174;2022-12-18T02:44:33;-6.60;99.90
1005;DHT22;491;53.480;10.174;2022-12-18T02:46:59;-6.60;99.90
1005;DHT22;491;53.480;10.174;2022-12-18T02:49:36;-6.50;99.90
1005;DHT22;491;53.480;10.174;2022-12-18T02:52:39;-6.60;99.90
1005;DHT22;491;53.480;10.174;2022-12-18T02:55:33;-6.60;99.90
1005;DHT22;491;53.480;10.174;2022-12-18T02:58:37;-6.60;99.90
1005;DHT22;491;53.480;10.174;2022-12-18T03:01:31;-6.50;99.90
1005;DHT22;491;53.480;10.174;2022-12-18T03:04:05;-6.70;99.90
1005;DHT22;491;53.480;10.174;2022-12-18T03:06:35;-6.60;99.90
1005;DHT22;491;53.480;10.174;2022-12-18T03:09:07;-6.50;99.90
1005;DHT22;491;53.480;10.174;2022-12-18T03:11:37;-6.60;99.90
1005;DHT22;491;53.480;10.174;2022-12-18T03:14:23;-6.70;99.90
1005;DHT22;491;53.480;10.174;2022-12-18T03:16:53;-6.80;99.90
1005;DHT22;491;53.480;10.174;2022-12-18T03:19:22;-6.80;99.90
1005;DHT22;491;53.480;10.174;2022-12-18T03:21:52;-6.90;99.90
1005;DHT22;491;53.480;10.174;2022-12-18T03:24:19;-6.80;99.90
1005;DHT22;491;53.480;10.174;2022-12-18T03:26:50;-7.00;99.90
1005;DHT22;491;53.480;10.174;2022-12-18T03:34:26;-7.50;99.90
1005;DHT22;491;53.480;10.174;2022-12-18T03:41:59;-7.20;99.90
1005;DHT22;491;53.480;10.174;2022-12-18T03:44:56;-7.00;99.90
1005;DHT22;491;53.480;10.174;2022-12-18T03:47:28;-6.80;99.90
1005;DHT22;491;53.480;10.174;2022-12-18T03:52:37;-6.90;99.90
1005;DHT22;491;53.480;10.174;2022-12-18T03:55:05;-6.80;99.90
1005;DHT22;491;53.480;10.174;2022-12-18T03:57:32;-6.80;99.90
1005;DHT22;491;53.480;10.174;2022-12-18T04:00:06;-6.90;99.90
1005;DHT22;491;53.480;10.174;2022-12-18T04:02:32;-6.80;99.90
1005;DHT22;491;53.480;10.174;2022-12-18T04:05:01;-6.90;99.90
1005;DHT22;491;53.480;10.174;2022-12-18T04:07:29;-6.80;99.90
1005;DHT22;491;53.480;10.174;2022-12-18T04:09:56;-6.90;99.90
1005;DHT22;491;53.480;10.174;2022-12-18T04:12:26;-7.00;99.90
1005;DHT22;491;53.480;10.174;2022-12-18T04:14:52;-6.90;99.90
1005;DHT22;491;53.480;10.174;2022-12-18T04:17:17;-6.90;99.90
1005;DHT22;491;53.480;10.174;2022-12-18T04:19:43;-7.00;99.90
1005;DHT22;491;53.480;10.174;2022-12-18T04:22:10;-7.00;99.90
1005;DHT22;491;53.480;10.174;2022-12-18T04:24:37;-7.00;99.90
1005;DHT22;491;53.480;10.174;2022-12-18T04:27:03;-7.00;99.90
1005;DHT22;491;53.480;10.174;2022-12-18T04:29:28;-7.00;99.90
1005;DHT22;491;53.480;10.174;2022-12-18T04:31:54;-7.00;99.90
1005;DHT22;491;53.480;10.174;2022-12-18T04:34:20;-7.00;99.90
1005;DHT22;491;53.480;10.174;2022-12-18T04:36:45;-6.90;99.90
1005;DHT22;491;53.480;10.174;2022-12-18T04:39:11;-7.00;99.90
1005;DHT22;491;53.480;10.174;2022-12-18T04:41:37;-7.00;99.90
1005;DHT22;491;53.480;10.174;2022-12-18T04:44:02;-7.10;99.90
1005;DHT22;491;53.480;10.174;2022-12-18T04:46:28;-7.10;99.90
1005;DHT22;491;53.480;10.174;2022-12-18T04:48:54;-7.40;99.90
1005;DHT22;491;53.480;10.174;2022-12-18T04:51:19;-7.20;99.90
1005;DHT22;491;53.480;10.174;2022-12-18T04:53:45;-7.30;99.90
1005;DHT22;491;53.480;10.174;2022-12-18T04:56:13;-7.10;99.90
1005;DHT22;491;53.480;10.174;2022-12-18T04:58:40;-7.50;99.90
1005;DHT22;491;53.480;10.174;2022-12-18T05:01:07;-7.30;99.90
1005;DHT22;491;53.480;10.174;2022-12-18T05:03:33;-7.30;99.90
1005;DHT22;491;53.480;10.174;2022-12-18T05:05:59;-7.30;99.90
1005;DHT22;491;53.480;10.174;2022-12-18T05:08:25;-7.30;99.90
1005;DHT22;491;53.480;10.174;2022-12-18T05:10:59;-7.30;99.90
1005;DHT22;491;53.480;10.174;2022-12-18T05:13:24;-7.30;99.90
1005;DHT22;491;53.480;10.174;2022-12-18T05:15:53;-7.20;99.90
1005;DHT22;491;53.480;10.174;2022-12-18T05:18:18;-7.40;99.90
1005;DHT22;491;53.480;10.174;2022-12-18T05:20:44;-7.30;99.90
1005;DHT22;491;53.480;10.174;2022-12-18T05:23:09;-7.20;99.90
1005;DHT22;491;53.480;10.174;2022-12-18T05:25:35;-7.30;99.90
1005;DHT22;491;53.480;10.174;2022-12-18T05:28:00;-7.30;99.90
1005;DHT22;491;53.480;10.174;2022-12-18T05:30:26;-7.50;99.90
1005;DHT22;491;53.480;10.174;2022-12-18T05:32:52;-7.30;99.90
1005;DHT22;491;53.480;10.174;2022-12-18T05:35:18;-7.40;99.90
1005;DHT22;491;53.480;10.174;2022-12-18T05:37:43;-7.40;99.90
1005;DHT22;491;53.480;10.174;2022-12-18T05:40:10;-7.40;99.90
1005;DHT22;491;53.480;10.174;2022-12-18T05:42:36;-7.30;99.90
1005;DHT22;491;53.480;10.174;2022-12-18T05:45:01;-7.40;99.90
1005;DHT22;491;53.480;10.174;2022-12-18T05:47:27;-6.80;99.90
1005;DHT22;491;53.480;10.174;2022-12-18T05:49:54;-7.10;99.90
1005;DHT22;491;53.480;10.174;2022-12-18T05:54:49;-7.40;99.90
1005;DHT22;491;53.480;10.174;2022-12-18T05:57:17;-7.40;99.90
1005;DHT22;491;53.480;10.174;2022-12-18T05:59:46;-7.30;99.90
1005;DHT22;491;53.480;10.174;2022-12-18T06:02:12;-7.30;99.90
1005;DHT22;491;53.480;10.174;2022-12-18T06:04:40;-7.20;99.90
1005;DHT22;491;53.480;10.174;2022-12-18T06:07:06;-7.30;99.90
1005;DHT22;491;53.480;10.174;2022-12-18T06:09:34;-6.90;99.90
1005;DHT22;491;53.480;10.174;2022-12-18T06:12:00;-7.40;99.90
1005;DHT22;491;53.480;10.174;2022-12-18T06:14:26;-7.20;99.90
1005;DHT22;491;53.480;10.174;2022-12-18T06:16:51;-7.40;99.90
1005;DHT22;491;53.480;10.174;2022-12-18T06:19:17;-7.30;99.90
1005;DHT22;491;53.480;10.174;2022-12-18T06:21:43;-7.40;99.90
1005;DHT22;491;53.480;10.174;2022-12-18T06:24:08;-7.30;99.90
1005;DHT22;491;53.480;10.174;2022-12-18T06:26:37;-7.30;99.90
1005;DHT22;491;53.480;10.174;2022-12-18T06:29:02;-7.50;99.90
1005;DHT22;491;53.480;10.174;2022-12-18T06:31:28;-6.90;99.90
1005;DHT22;491;53.480;10.174;2022-12-18T06:33:53;-7.60;99.90
1005;DHT22;491;53.480;10.174;2022-12-18T06:36:19;-7.50;99.90
1005;DHT22;491;53.480;10.174;2022-12-18T06:38:46;-7.50;99.90
1005;DHT22;491;53.480;10.174;2022-12-18T06:41:17;-7.50;99.90
1005;DHT22;491;53.480;10.174;2022-12-18T06:43:43;-7.60;99.90
1005;DHT22;491;53.480;10.174;2022-12-18T06:46:09;-7.60;99.90
1005;DHT22;491;53.480;10.174;2022-12-18T06:48:35;-7.60;99.90
1005;DHT22;491;53.480;10.174;2022-12-18T06:51:01;-7.60;99.90
1005;DHT22;491;53.480;10.174;2022-12-18T06:53:27;-7.60;99.90
1005;DHT22;491;53.480;10.174;2022-12-18T06:55:52;-7.60;99.90
1005;DHT22;491;53.480;10.174;2022-12-18T06:58:18;-7.60;99.90
1005;DHT22;491;53.480;10.174;2022-12-18T07:00:44;-7.50;99.90
1005;DHT22;491;53.480;10.174;2022-12-18T07:03:12;-7.50;99.90
1005;DHT22;491;53.480;10.174;2022-12-18T07:05:41;-7.70;99.90
1005;DHT22;491;53.480;10.174;2022-12-18T07:08:06;-7.60;99.90
1005;DHT22;491;53.480;10.174;2022-12-18T07:10:32;-7.50;99.90
1005;DHT22;491;53.480;10.174;2022-12-18T07:12:57;-7.50;99.90
1005;DHT22;491;53.480;10.174;2022-12-18T07:15:23;-7.50;99.90
1005;DHT22;491;53.480;10.174;2022-12-18T07:17:48;-7.50;99.90
1005;DHT22;491;53.480;10.174;2022-12-18T07:20:14;-7.40;99.90
1005;DHT22;491;53.480;10.174;2022-12-18T07:22:39;-7.70;99.90
1005;DHT22;491;53.480;10.174;2022-12-18T07:25:05;-7.50;99.90
1005;DHT22;491;53.480;10.174;2022-12-18T07:27:31;-7.60;99.90
1005;DHT22;491;53.480;10.174;2022-12-18T07:29:57;-7.70;99.90
1005;DHT22;491;53.480;10.174;2022-12-18T07:32:31;-7.50;99.90
1005;DHT22;491;53.480;10.174;2022-12-18T07:34:57;-7.50;99.90
1005;DHT22;491;53.480;10.174;2022-12-18T07:37:22;-7.50;99.90
1005;DHT22;491;53.480;10.174;2022-12-18T07:39:48;-7.40;99.90
1005;DHT22;491;53.480;10.174;2022-12-18T07:42:13;-7.20;99.90
1005;DHT22;491;53.480;10.174;2022-12-18T07:45:00;-7.50;99.90
1005;DHT22;491;53.480;10.174;2022-12-18T07:47:27;-7.50;99.90
1005;DHT22;491;53.480;10.174;2022-12-18T07:49:55;-7.40;99.90
1005;DHT22;491;53.480;10.174;2022-12-18T07:52:21;-7.40;99.90
1005;DHT22;491;53.480;10.174;2022-12-18T07:54:47;-7.50;99.90
1005;DHT22;491;53.480;10.174;2022-12-18T07:57:15;-7.40;99.90
1005;DHT22;491;53.480;10.174;2022-12-18T07:59:41;-7.40;99.90
1005;DHT22;491;53.480;10.174;2022-12-18T08:02:07;-7.40;99.90
1005;DHT22;491;53.480;10.174;2022-12-18T08:04:35;-7.20;99.90
1005;DHT22;491;53.480;10.174;2022-12-18T08:07:04;-7.30;99.90
1005;DHT22;491;53.480;10.174;2022-12-18T08:09:29;-7.50;99.90
1005;DHT22;491;53.480;10.174;2022-12-18T08:11:58;-7.00;99.90
1005;DHT22;491;53.480;10.174;2022-12-18T08:14:23;-7.20;99.90
1005;DHT22;491;53.480;10.174;2022-12-18T08:16:49;-6.20;99.90
1005;DHT22;491;53.480;10.174;2022-12-18T08:19:15;-7.00;99.90
1005;DHT22;491;53.480;10.174;2022-12-18T08:21:43;-7.00;99.90
1005;DHT22;491;53.480;10.174;2022-12-18T08:24:09;-7.00;99.90
1005;DHT22;491;53.480;10.174;2022-12-18T08:26:35;-6.80;99.90
1005;DHT22;491;53.480;10.174;2022-12-18T08:29:01;-6.50;99.90
1005;DHT22;491;53.480;10.174;2022-12-18T08:31:32;-6.80;99.90
1005;DHT22;491;53.480;10.174;2022-12-18T08:33:58;-6.80;99.90
1005;DHT22;491;53.480;10.174;2022-12-18T08:36:28;-6.80;99.90
1005;DHT22;491;53.480;10.174;2022-12-18T08:38:54;-6.80;99.90
1005;DHT22;491;53.480;10.174;2022-12-18T08:41:20;-6.60;99.90
1005;DHT22;491;53.480;10.174;2022-12-18T08:43:45;-6.50;99.90
1005;DHT22;491;53.480;10.174;2022-12-18T08:46:38;-6.40;99.90
1005;DHT22;491;53.480;10.174;2022-12-18T08:49:05;-6.40;99.90
1005;DHT22;491;53.480;10.174;2022-12-18T08:51:31;-6.40;99.90
1005;DHT22;491;53.480;10.174;2022-12-18T08:53:56;-6.30;99.90
1005;DHT22;491;53.480;10.174;2022-12-18T08:56:22;-6.20;99.90
1005;DHT22;491;53.480;10.174;2022-12-18T08:58:52;-6.30;99.90
1005;DHT22;491;53.480;10.174;2022-12-18T09:01:17;-6.20;99.90
1005;DHT22;491;53.480;10.174;2022-12-18T09:03:43;-6.20;99.90
1005;DHT22;491;53.480;10.174;2022-12-18T09:06:08;-6.20;99.90
1005;DHT22;491;53.480;10.174;2022-12-18T09:08:34;-5.80;99.90
1005;DHT22;491;53.480;10.174;2022-12-18T09:11:02;-6.00;99.90
1005;DHT22;491;53.480;10.174;2022-12-18T09:13:28;-5.90;99.90
1005;DHT22;491;53.480;10.174;2022-12-18T09:15:54;-5.80;99.90
1005;DHT22;491;53.480;10.174;2022-12-18T09:18:22;-5.40;99.90
1005;DHT22;491;53.480;10.174;2022-12-18T09:20:48;-5.60;99.90
1005;DHT22;491;53.480;10.174;2022-12-18T09:23:14;-5.60;99.90
1005;DHT22;491;53.480;10.174;2022-12-18T09:25:42;-5.20;99.90
1005;DHT22;491;53.480;10.174;2022-12-18T09:28:13;-5.50;99.90
1005;DHT22;491;53.480;10.174;2022-12-18T09:30:41;-5.40;99.90
1005;DHT22;491;53.480;10.174;2022-12-18T09:33:07;-5.40;99.90
1005;DHT22;491;53.480;10.174;2022-12-18T09:35:36;-5.50;99.90
1005;DHT22;491;53.480;10.174;2022-12-18T09:38:01;-5.30;99.90
1005;DHT22;491;53.480;10.174;2022-12-18T09:40:50;-5.40;99.90
1005;DHT22;491;53.480;10.174;2022-12-18T09:43:19;-5.20;99.90
1005;DHT22;491;53.480;10.174;2022-12-18T09:45:49;-5.20;99.90
1005;DHT22;491;53.480;10.174;2022-12-18T09:48:22;-4.90;99.90
1005;DHT22;491;53.480;10.174;2022-12-18T09:50:57;-4.90;97.70
1005;DHT22;491;53.480;10.174;2022-12-18T09:53:31;-4.90;70.40
1005;DHT22;491;53.480;10.174;2022-12-18T09:56:00;-4.80;69.20
1005;DHT22;491;53.480;10.174;2022-12-18T09:58:48;-4.60;59.50
1005;DHT22;491;53.480;10.174;2022-12-18T10:01:20;-4.40;26.80
1005;DHT22;491;53.480;10.174;2022-12-18T10:03:46;-4.50;17.10
1005;DHT22;491;53.480;10.174;2022-12-18T10:09:31;-4.60;1.00
1005;DHT22;491;53.480;10.174;2022-12-18T10:12:04;-4.50;1.00
1005;DHT22;491;53.480;10.174;2022-12-18T10:14:41;-4.30;1.00
1005;DHT22;491;53.480;10.174;2022-12-18T10:17:39;-4.20;1.00
1005;DHT22;491;53.480;10.174;2022-12-18T10:22:53;-4.00;1.00
1005;DHT22;491;53.480;10.174;2022-12-18T10:25:39;-4.10;1.00
1005;DHT22;491;53.480;10.174;2022-12-18T10:28:13;-4.00;1.00
1005;DHT22;491;53.480;10.174;2022-12-18T10:30:40;-3.80;1.00
1005;DHT22;491;53.480;10.174;2022-12-18T10:33:08;-3.70;1.00
1005;DHT22;491;53.480;10.174;2022-12-18T10:35:35;-3.70;1.00
1005;DHT22;491;53.480;10.174;2022-12-18T10:38:05;-3.60;1.00
1005;DHT22;491;53.480;10.174;2022-12-18T10:40:32;-3.30;1.00
1005;DHT22;491;53.480;10.174;2022-12-18T10:43:27;-2.90;99.90
1005;DHT22;491;53.480;10.174;2022-12-18T10:48:52;-2.30;1.00
1005;DHT22;491;53.480;10.174;2022-12-18T10:51:31;-2.80;1.00
1005;DHT22;491;53.480;10.174;2022-12-18T10:56:33;-2.40;99.90
1005;DHT22;491;53.480;10.174;2022-12-18T10:59:08;-1.30;99.90
1005;DHT22;491;53.480;10.174;2022-12-18T11:04:27;-1.30;1.00
1005;DHT22;491;53.480;10.174;2022-12-18T11:07:07;0.20;99.90
1005;DHT22;491;53.480;10.174;2022-12-18T11:09:39;1.10;1.00
1005;DHT22;491;53.480;10.174;2022-12-18T11:12:19;0.40;1.00
1005;DHT22;491;53.480;10.174;2022-12-18T11:14:49;0.70;1.00
1005;DHT22;491;53.480;10.174;2022-12-18T11:17:29;0.40;1.00
1005;DHT22;491;53.480;10.174;2022-12-18T11:20:00;-0.50;99.90
1005;DHT22;491;53.480;10.174;2022-12-18T11:25:04;0.40;1.00
1005;DHT22;491;53.480;10.174;2022-12-18T11:27:31;-0.60;99.90
1005;DHT22;491;53.480;10.174;2022-12-18T11:32:47;-1.50;85.20
1005;DHT22;491;53.480;10.174;2022-12-18T11:35:39;-1.10;99.90
1005;DHT22;491;53.480;10.174;2022-12-18T11:38:29;-2.00;9.10
1005;DHT22;491;53.480;10.174;2022-12-18T11:49:49;-2.00;99.90
1005;DHT22;491;53.480;10.174;2022-12-18T11:52:25;-2.00;1.00
1005;DHT22;491;53.480;10.174;2022-12-18T11:54:58;0.20;1.00
1005;DHT22;491;53.480;10.174;2022-12-18T11:57:50;1.10;99.90
1005;DHT22;491;53.480;10.174;2022-12-18T12:00:22;1.10;20.20
1005;DHT22;491;53.480;10.174;2022-12-18T12:06:03;0.40;99.90
1005;DHT22;491;53.480;10.174;2022-12-18T12:11:20;0.50;1.00
1005;DHT22;491;53.480;10.174;2022-12-18T12:14:17;-0.10;99.90
1005;DHT22;491;53.480;10.174;2022-12-18T12:16:54;-0.60;99.90
1005;DHT22;491;53.480;10.174;2022-12-18T12:25:08;-1.40;99.90
1005;DHT22;491;53.480;10.174;2022-12-18T12:30:49;-1.70;99.90
1005;DHT22;491;53.480;10.174;2022-12-18T12:38:47;-1.80;1.00
1005;DHT22;491;53.480;10.174;2022-12-18T12:41:18;-2.00;62.70
1005;DHT22;491;53.480;10.174;2022-12-18T12:44:07;-1.80;73.30
1005;DHT22;491;53.480;10.174;2022-12-18T12:46:39;-1.60;1.00
1005;DHT22;491;53.480;10.174;2022-12-18T12:49:12;-1.80;1.00
1005;DHT22;491;53.480;10.174;2022-12-18T12:51:43;-1.60;99.90
1005;DHT22;491;53.480;10.174;2022-12-18T12:54:19;-1.60;1.00
1005;DHT22;491;53.480;10.174;2022-12-18T12:57:37;-1.80;99.90
1005;DHT22;491;53.480;10.174;2022-12-18T13:02:33;-1.60;99.90
1005;DHT22;491;53.480;10.174;2022-12-18T13:07:35;-2.10;99.90
1005;DHT22;491;53.480;10.174;2022-12-18T13:15:40;-2.10;99.90
1005;DHT22;491;53.480;10.174;2022-12-18T13:21:11;-1.80;99.90
1005;DHT22;491;53.480;10.174;2022-12-18T13:23:35;-1.70;1.00
1005;DHT22;491;53.480;10.174;2022-12-18T13:30:59;-1.90;99.90
1005;DHT22;491;53.480;10.174;2022-12-18T13:36:29;-2.00;1.00
1005;DHT22;491;53.480;10.174;2022-12-18T13:39:25;-2.30;1.00
1005;DHT22;491;53.480;10.174;2022-12-18T13:45:40;-2.20;1.00
1005;DHT22;491;53.480;10.174;2022-12-18T13:48:18;-2.20;1.00
1005;DHT22;491;53.480;10.174;2022-12-18T13:51:09;-2.50;1.00
1005;DHT22;491;53.480;10.174;2022-12-18T13:53:44;-2.50;1.00
1005;DHT22;491;53.480;10.174;2022-12-18T13:56:24;-2.50;1.00
1005;DHT22;491;53.480;10.174;2022-12-18T14:01:34;-2.60;1.00
1005;DHT22;491;53.480;10.174;2022-12-18T14:04:20;-2.50;1.00
1005;DHT22;491;53.480;10.174;2022-12-18T14:06:47;-2.60;1.00
1005;DHT22;491;53.480;10.174;2022-12-18T14:09:16;-2.90;1.00
1005;DHT22;491;53.480;10.174;2022-12-18T14:11:50;-2.70;1.00
1005;DHT22;491;53.480;10.174;2022-12-18T14:14:18;-2.60;1.00
1005;DHT22;491;53.480;10.174;2022-12-18T14:16:46;-3.00;2.90
1005;DHT22;491;53.480;10.174;2022-12-18T14:19:16;-2.80;1.00
1005;DHT22;491;53.480;10.174;2022-12-18T14:21:50;-2.90;30.00
1005;DHT22;491;53.480;10.174;2022-12-18T14:24:20;-2.90;52.90
1005;DHT22;491;53.480;10.174;2022-12-18T14:26:48;-3.00;53.20
1005;DHT22;491;53.480;10.174;2022-12-18T14:29:26;-3.00;77.30
1005;DHT22;491;53.480;10.174;2022-12-18T14:34:29;-3.10;95.20
1005;DHT22;491;53.480;10.174;2022-12-18T14:36:56;-3.00;99.90
1005;DHT22;491;53.480;10.174;2022-12-18T14:39:22;-3.20;99.90
1005;DHT22;491;53.480;10.174;2022-12-18T14:41:50;-3.30;99.90
1005;DHT22;491;53.480;10.174;2022-12-18T14:44:16;-3.10;99.90
1005;DHT22;491;53.480;10.174;2022-12-18T14:46:44;-3.10;99.90
1005;DHT22;491;53.480;10.174;2022-12-18T14:49:33;-3.30;99.90
1005;DHT22;491;53.480;10.174;2022-12-18T14:52:13;-3.20;99.90
1005;DHT22;491;53.480;10.174;2022-12-18T14:54:46;-3.10;99.90
1005;DHT22;491;53.480;10.174;2022-12-18T14:57:23;-3.40;99.90
1005;DHT22;491;53.480;10.174;2022-12-18T14:59:49;-3.30;99.90
1005;DHT22;491;53.480;10.174;2022-12-18T15:02:23;-2.90;99.90
1005;DHT22;491;53.480;10.174;2022-12-18T15:05:01;-3.40;99.90
1005;DHT22;491;53.480;10.174;2022-12-18T15:07:27;-3.20;99.90
1005;DHT22;491;53.480;10.174;2022-12-18T15:20:40;-3.70;99.90
1005;DHT22;491;53.480;10.174;2022-12-18T15:23:26;-3.40;99.90
1005;DHT22;491;53.480;10.174;2022-12-18T15:26:00;-3.30;99.90
1005;DHT22;491;53.480;10.174;2022-12-18T15:28:34;-3.50;99.90
1005;DHT22;491;53.480;10.174;2022-12-18T15:33:36;-3.50;99.90
1005;DHT22;491;53.480;10.174;2022-12-18T15:36:05;-3.40;99.90
1005;DHT22;491;53.480;10.174;2022-12-18T15:38:31;-3.60;99.90
1005;DHT22;491;53.480;10.174;2022-12-18T15:40:57;-3.50;99.90
1005;DHT22;491;53.480;10.174;2022-12-18T15:43:24;-3.50;99.90
1005;DHT22;491;53.480;10.174;2022-12-18T15:46:14;-3.50;99.90
1005;DHT22;491;53.480;10.174;2022-12-18T15:49:02;-3.50;99.90
1005;DHT22;491;53.480;10.174;2022-12-18T15:51:33;-3.40;99.90
1005;DHT22;491;53.480;10.174;2022-12-18T15:54:02;-3.40;99.90
1005;DHT22;491;53.480;10.174;2022-12-18T15:56:30;-3.50;99.90
1005;DHT22;491;53.480;10.174;2022-12-18T15:59:16;-3.40;99.90
1005;DHT22;491;53.480;10.174;2022-12-18T16:01:47;-3.60;99.90
1005;DHT22;491;53.480;10.174;2022-12-18T16:04:14;-3.40;99.90
1005;DHT22;491;53.480;10.174;2022-12-18T16:06:44;-3.40;99.90
1005;DHT22;491;53.480;10.174;2022-12-18T16:09:09;-3.50;99.90
1005;DHT22;491;53.480;10.174;2022-12-18T16:11:37;-3.40;99.90
1005;DHT22;491;53.480;10.174;2022-12-18T16:14:27;-3.60;99.90
1005;DHT22;491;53.480;10.174;2022-12-18T16:19:21;-3.50;99.90
1005;DHT22;491;53.480;10.174;2022-12-18T16:21:47;-3.50;99.90
1005;DHT22;491;53.480;10.174;2022-12-18T16:24:17;-3.50;99.90
1005;DHT22;491;53.480;10.174;2022-12-18T16:26:43;-3.50;99.90
1005;DHT22;491;53.480;10.174;2022-12-18T16:29:09;-3.40;99.90
1005;DHT22;491;53.480;10.174;2022-12-18T16:31:35;-3.50;99.90
1005;DHT22;491;53.480;10.174;2022-12-18T16:34:34;-3.30;99.90
1005;DHT22;491;53.480;10.174;2022-12-18T16:37:05;-3.40;99.90
1005;DHT22;491;53.480;10.174;2022-12-18T16:39:32;-3.20;99.90
1005;DHT22;491;53.480;10.174;2022-12-18T16:41:59;-3.60;99.90
1005;DHT22;491;53.480;10.174;2022-12-18T16:44:24;-3.50;99.90
1005;DHT22;491;53.480;10.174;2022-12-18T16:46:56;-3.20;99.90
1005;DHT22;491;53.480;10.174;2022-12-18T16:49:27;-3.30;99.90
1005;DHT22;491;53.480;10.174;2022-12-18T16:51:53;-3.40;99.90
1005;DHT22;491;53.480;10.174;2022-12-18T16:54:19;-3.40;99.90
1005;DHT22;491;53.480;10.174;2022-12-18T16:56:44;-3.30;99.90
1005;DHT22;491;53.480;10.174;2022-12-18T16:59:13;-3.30;99.90
1005;DHT22;491;53.480;10.174;2022-12-18T17:01:42;-3.30;99.90
1005;DHT22;491;53.480;10.174;2022-12-18T17:04:08;-3.60;99.90
1005;DHT22;491;53.480;10.174;2022-12-18T17:06:35;-3.50;99.90
1005;DHT22;491;53.480;10.174;2022-12-18T17:09:10;-3.50;99.90
1005;DHT22;491;53.480;10.174;2022-12-18T17:11:36;-3.20;99.90
1005;DHT22;491;53.480;10.174;2022-12-18T17:14:09;-3.50;99.90
1005;DHT22;491;53.480;10.174;2022-12-18T17:17:00;-3.30;99.90
1005;DHT22;491;53.480;10.174;2022-12-18T17:19:29;-3.30;99.90
1005;DHT22;491;53.480;10.174;2022-12-18T17:21:55;-3.40;99.90
1005;DHT22;491;53.480;10.174;2022-12-18T17:24:25;-3.20;99.90
1005;DHT22;491;53.480;10.174;2022-12-18T17:26:51;-3.20;99.90
1005;DHT22;491;53.480;10.174;2022-12-18T17:29:18;-3.40;99.90
1005;DHT22;491;53.480;10.174;2022-12-18T17:31:46;-3.20;99.90
1005;DHT22;491;53.480;10.174;2022-12-18T17:34:12;-3.40;99.90
1005;DHT22;491;53.480;10.174;2022-12-18T17:36:38;-3.50;99.90
1005;DHT22;491;53.480;10.174;2022-12-18T17:39:05;-3.50;99.90
1005;DHT22;491;53.480;10.174;2022-12-18T17:41:31;-3.40;99.90
1005;DHT22;491;53.480;10.174;2022-12-18T17:43:58;-3.60;99.90
1005;DHT22;491;53.480;10.174;2022-12-18T17:46:26;-3.40;99.90
1005;DHT22;491;53.480;10.174;2022-12-18T17:48:54;-3.40;99.90
1005;DHT22;491;53.480;10.174;2022-12-18T17:51:20;-3.50;99.90
1005;DHT22;491;53.480;10.174;2022-12-18T17:53:45;-3.40;99.90
1005;DHT22;491;53.480;10.174;2022-12-18T17:56:13;-3.30;99.90
1005;DHT22;491;53.480;10.174;2022-12-18T17:58:39;-3.50;99.90
1005;DHT22;491;53.480;10.174;2022-12-18T18:01:05;-3.30;99.90
1005;DHT22;491;53.480;10.174;2022-12-18T18:03:32;-3.50;99.90
1005;DHT22;491;53.480;10.174;2022-12-18T18:05:59;-3.50;99.90
1005;DHT22;491;53.480;10.174;2022-12-18T18:08:27;-3.40;99.90
1005;DHT22;491;53.480;10.174;2022-12-18T18:10:53;-3.40;99.90
1005;DHT22;491;53.480;10.174;2022-12-18T18:21:05;-3.30;99.90
1005;DHT22;491;53.480;10.174;2022-12-18T18:23:32;-3.20;99.90
1005;DHT22;491;53.480;10.174;2022-12-18T18:26:05;-3.30;99.90
1005;DHT22;491;53.480;10.174;2022-12-18T18:28:32;-3.20;99.90